Terminal Aerodrome Forecast
Issued by NWS

Home | Current Version | Previous Version | Text Only | Print | Product List | Glossary On
Versions: 1 2 3 4 5 6 7 8 9 10 11 12 13 14 15
000
FTUS45 KSLC 240527
TAFOGD
TAF
KOGD 240527Z 2406/2506 17008KT P6SM SKC
     FM241900 23010G18KT P6SM SCT100
     FM250200 33015G25KT P6SM VCSH SCT060 BKN120
     FM250400 33008KT P6SM VCSH SCT060 BKN100=

USA.gov is the U.S. government's official web portal to all federal, state and local government web resources and services.